Cow Island, Louisiana
Current Conditions -  °F | °C
As of 5:55 PM on Wednesday 28 Jan 2015 (Local Time) from KIYA Reporting Station
Clear Clear  
Wind Chill: 58°   Ceiling: Unl
Heat Index: 58°   Visibility: 10mi
Dew Point: 46°   Wind: 7mph
Humidity: 66%   Direction: 140°SE
Pressure: 30.21"   Gusts: NA
Location:  29.8955°N, 92.208°W
Report Text: KIYA 282355Z AUTO 14006KT 10SM CLR 14/08 A3021 RMK AO2 T01430080 10206 20143
Loading
Personal Weather Stations






























Interactive Weather Map New forecast layout! Learn more

10-Day Weather Forecast

Advertisements
Track Severe Weather on mobile